Time;durP1;ratioP1;P1;durP2;ratioP2;P2;SDS_P1;SDS_P2;PMS_P1;PMS_P2;Temp;Humidity;BMP_temperature;BMP_pressure;BME280_temperature;BME280_humidity;BME280_pressure;Samples;Min_cycle;Max_cycle;Signal;HPM_P1;HPM_P2
2022/05/18 00:00:53;;;;;;;15.40;10.75;;;21.10;1.00;;;;;;5053314;28;20304;-67
2022/05/18 00:03:23;;;;;;;16.30;10.82;;;21.10;1.00;;;;;;5053433;28;20180;-67
2022/05/18 00:05:48;;;;;;;12.50;9.07;;;21.00;48.20;;;;;;5052009;28;20176;-67
2022/05/18 00:08:15;;;;;;;11.43;7.85;;;21.00;15.80;;;;;;5053310;28;20193;-68
2022/05/18 00:10:43;;;;;;;14.57;8.80;;;21.00;1.00;;;;;;5052980;28;20173;-66
2022/05/18 00:13:10;;;;;;;11.63;7.85;;;21.10;1.00;;;;;;5053348;28;20221;-66
2022/05/18 00:15:36;;;;;;;13.25;8.38;;;21.00;1.00;;;;;;5052398;28;20295;-67
2022/05/18 00:18:03;;;;;;;10.73;7.20;;;21.10;1.00;;;;;;5052007;28;20182;-67
2022/05/18 00:20:28;;;;;;;10.65;7.70;;;21.10;1.00;;;;;;5053319;28;20169;-66
2022/05/18 00:22:57;;;;;;;7.32;6.07;;;21.10;99.90;;;;;;5052841;28;20667;-67
2022/05/18 00:25:26;;;;;;;13.02;6.90;;;21.10;37.00;;;;;;5052935;28;20642;-66
2022/05/18 00:27:52;;;;;;;14.00;7.07;;;21.10;99.90;;;;;;5053041;28;20183;-67
2022/05/18 00:30:19;;;;;;;11.23;6.40;;;21.00;99.90;;;;;;5053200;28;20177;-66
2022/05/18 00:32:45;;;;;;;8.38;5.65;;;20.90;99.90;;;;;;5053014;28;20205;-67
2022/05/18 00:35:12;;;;;;;10.73;5.80;;;20.90;1.00;;;;;;5053003;28;20636;-67
2022/05/18 00:37:38;;;;;;;9.85;5.93;;;20.90;1.00;;;;;;5052643;28;20185;-67
2022/05/18 00:40:04;;;;;;;6.13;4.30;;;21.00;1.00;;;;;;5052893;28;20234;-67
2022/05/18 00:42:30;;;;;;;13.13;5.80;;;21.00;53.60;;;;;;5052868;28;20196;-67
2022/05/18 00:44:56;;;;;;;8.85;5.00;;;21.10;1.00;;;;;;5052746;28;20176;-67
2022/05/18 00:47:22;;;;;;;9.32;5.75;;;21.10;1.00;;;;;;5052791;28;20177;-67
2022/05/18 00:49:53;;;;;;;6.03;5.28;;;21.20;1.00;;;;;;5052873;28;20196;-67
2022/05/18 00:52:24;;;;;;;6.53;4.88;;;21.20;1.00;;;;;;5052367;28;20209;-67
2022/05/18 00:54:51;;;;;;;10.20;5.35;;;21.10;1.00;;;;;;5052528;28;20211;-66
2022/05/18 00:57:26;;;;;;;6.50;5.40;;;21.10;1.00;;;;;;5052695;28;20531;-67
2022/05/18 00:59:58;;;;;;;12.18;6.68;;;20.90;99.90;;;;;;5052631;28;20212;-66
2022/05/18 01:02:27;;;;;;;9.95;6.05;;;20.70;1.00;;;;;;5052853;28;20170;-66
2022/05/18 01:04:57;;;;;;;15.07;5.72;;;20.60;1.00;;;;;;5052640;28;20180;-67
2022/05/18 01:07:29;;;;;;;11.18;5.60;;;20.50;1.00;;;;;;5052254;28;20169;-66
2022/05/18 01:09:55;;;;;;;5.90;4.05;;;20.50;1.00;;;;;;5052889;28;20166;-66
2022/05/18 01:12:22;;;;;;;9.05;6.72;;;20.60;1.00;;;;;;5052668;28;20762;-66
2022/05/18 01:14:51;;;;;;;10.75;4.07;;;20.70;99.90;;;;;;5052692;28;20173;-67
2022/05/18 01:17:20;;;;;;;8.88;5.70;;;20.80;1.00;;;;;;5052563;28;20179;-67
2022/05/18 01:19:52;;;;;;;4.28;3.15;;;20.80;99.90;;;;;;5052505;28;20200;-67
2022/05/18 01:22:17;;;;;;;7.95;4.57;;;20.90;1.00;;;;;;5052346;28;20235;-67
2022/05/18 01:24:52;;;;;;;5.00;3.78;;;21.00;1.00;;;;;;5052694;28;20173;-66
2022/05/18 01:27:17;;;;;;;7.18;4.75;;;21.10;1.00;;;;;;5053812;28;20644;-67
2022/05/18 01:29:43;;;;;;;10.35;4.80;;;21.20;1.00;;;;;;5056456;28;20192;-67
2022/05/18 01:32:14;;;;;;;6.78;4.40;;;21.20;99.90;;;;;;5056253;28;20217;-67
2022/05/18 01:34:42;;;;;;;13.73;4.68;;;21.20;99.90;;;;;;5056447;28;20173;-67
2022/05/18 01:37:11;;;;;;;3.78;2.97;;;21.10;99.90;;;;;;5056070;28;20210;-66
2022/05/18 01:39:47;;;;;;;5.78;3.30;;;21.10;1.00;;;;;;5056405;28;20161;-67
2022/05/18 01:42:24;;;;;;;7.30;3.13;;;21.20;1.00;;;;;;5056168;28;20230;-67
2022/05/18 01:44:50;;;;;;;4.32;3.30;;;21.30;1.00;;;;;;5056054;28;20173;-67
2022/05/18 01:47:15;;;;;;;4.78;3.28;;;21.30;1.00;;;;;;5055927;28;20242;-67
2022/05/18 01:49:43;;;;;;;7.63;3.30;;;21.30;1.00;;;;;;5055973;28;20173;-67
2022/05/18 01:52:10;;;;;;;4.82;3.03;;;21.20;1.00;;;;;;5055778;28;20213;-67
2022/05/18 01:54:42;;;;;;;5.90;3.40;;;21.20;1.00;;;;;;5055936;28;20165;-67
2022/05/18 01:57:07;;;;;;;5.95;3.00;;;21.20;1.00;;;;;;5056025;28;20181;-67
2022/05/18 01:59:34;;;;;;;5.13;3.63;;;21.20;1.00;;;;;;5055526;28;20225;-67
2022/05/18 02:02:00;;;;;;;8.82;3.50;;;21.30;1.00;;;;;;5055722;28;20710;-67
2022/05/18 02:04:25;;;;;;;5.07;3.60;;;21.30;1.00;;;;;;5055300;28;20256;-66
2022/05/18 02:06:51;;;;;;;6.57;3.22;;;21.30;1.00;;;;;;5055713;28;20256;-66
2022/05/18 02:09:19;;;;;;;6.28;3.50;;;21.40;1.00;;;;;;5055601;28;20252;-66
2022/05/18 02:11:45;;;;;;;7.95;3.10;;;21.40;1.00;;;;;;5055645;28;20236;-66
2022/05/18 02:14:11;;;;;;;6.22;3.50;;;21.50;1.00;;;;;;5055505;28;20165;-67
2022/05/18 02:16:37;;;;;;;6.60;3.22;;;21.40;1.00;;;;;;5055482;28;20219;-68
2022/05/18 02:19:03;;;;;;;6.82;3.40;;;21.20;1.00;;;;;;5055339;28;20215;-67
2022/05/18 02:21:29;;;;;;;5.78;3.33;;;21.20;1.00;;;;;;5055607;28;20272;-67
2022/05/18 02:23:54;;;;;;;6.00;3.40;;;21.20;1.00;;;;;;5055550;28;20200;-67
2022/05/18 02:26:21;;;;;;;5.75;3.40;;;21.10;1.00;;;;;;5055466;28;20530;-66
2022/05/18 02:28:47;;;;;;;6.75;3.28;;;21.10;1.00;;;;;;5055356;28;20177;-66
2022/05/18 02:31:14;;;;;;;6.13;4.00;;;21.20;1.00;;;;;;5055037;28;20252;-66
2022/05/18 02:33:41;;;;;;;8.07;4.18;;;21.20;1.00;;;;;;5055108;28;20205;-66
2022/05/18 02:36:08;;;;;;;5.60;3.67;;;21.20;1.00;;;;;;5054985;28;20207;-66
2022/05/18 02:38:34;;;;;;;11.68;3.33;;;21.20;1.00;;;;;;5054238;28;20199;-67
2022/05/18 02:41:00;;;;;;;7.10;3.45;;;21.20;1.00;;;;;;5054836;28;20521;-67
2022/05/18 02:43:27;;;;;;;8.27;3.60;;;21.20;1.00;;;;;;5055053;28;20181;-67
2022/05/18 02:46:14;;;;;;;8.70;3.47;;;21.20;1.00;;;;;;5053601;28;20587;-67
2022/05/18 02:48:40;;;;;;;7.22;3.67;;;21.20;1.00;;;;;;5054662;28;20179;-67
2022/05/18 02:51:07;;;;;;;7.05;3.75;;;21.10;1.00;;;;;;5053764;28;20522;-67
2022/05/18 02:53:33;;;;;;;8.90;3.63;;;21.00;1.00;;;;;;5054615;28;20181;-67
2022/05/18 02:56:07;;;;;;;6.70;3.08;;;21.00;1.00;;;;;;5054851;28;20169;-67
2022/05/18 02:58:33;;;;;;;6.72;3.50;;;21.00;1.00;;;;;;5053224;28;20544;-67
2022/05/18 03:01:00;;;;;;;7.57;3.97;;;21.00;1.00;;;;;;5054504;28;20224;-67
2022/05/18 03:03:27;;;;;;;5.78;3.60;;;21.00;1.00;;;;;;5054281;28;20692;-67
2022/05/18 03:05:52;;;;;;;6.60;3.63;;;21.00;1.00;;;;;;5054595;28;20686;-67
2022/05/18 03:08:18;;;;;;;5.57;3.25;;;21.10;1.00;;;;;;5054294;28;20193;-67
2022/05/18 03:10:43;;;;;;;7.15;3.28;;;21.10;1.00;;;;;;5054358;28;20554;-67
2022/05/18 03:13:10;;;;;;;5.20;3.25;;;21.10;1.00;;;;;;5054418;28;20779;-67
2022/05/18 03:15:36;;;;;;;7.68;3.50;;;21.10;1.00;;;;;;5054061;28;20169;-68
2022/05/18 03:18:02;;;;;;;6.70;3.60;;;21.10;1.00;;;;;;5053245;28;20177;-67
2022/05/18 03:23:34;;;;;;;5.93;2.92;;;21.10;1.00;;;;;;5038287;28;20181;-67
2022/05/18 03:26:05;;;;;;;7.68;3.47;;;21.10;1.00;;;;;;5054143;28;20280;-67
2022/05/18 03:28:31;;;;;;;6.25;3.45;;;21.10;1.00;;;;;;5054103;28;20256;-67
2022/05/18 03:30:57;;;;;;;8.85;3.45;;;21.20;1.00;;;;;;5053855;28;20176;-68
2022/05/18 03:33:22;;;;;;;6.65;3.58;;;21.20;1.00;;;;;;5053432;28;20215;-68
2022/05/18 03:35:48;;;;;;;6.40;3.35;;;21.30;1.00;;;;;;5053695;28;20161;-67
2022/05/18 03:38:15;;;;;;;8.38;3.95;;;21.30;1.00;;;;;;5053961;28;20196;-67
2022/05/18 03:40:41;;;;;;;3.40;2.95;;;21.30;1.00;;;;;;5053753;28;20172;-68
2022/05/18 03:43:07;;;;;;;8.40;3.63;;;21.30;1.00;;;;;;5053675;28;20173;-67
2022/05/18 03:45:35;;;;;;;8.38;3.70;;;21.30;1.00;;;;;;5052195;28;20173;-67
2022/05/18 03:48:01;;;;;;;4.53;3.17;;;21.40;1.00;;;;;;5053399;28;20166;-67
2022/05/18 03:50:28;;;;;;;7.15;3.72;;;21.50;1.00;;;;;;5053301;28;20690;-67
2022/05/18 03:52:55;;;;;;;5.60;3.28;;;21.50;1.00;;;;;;5053044;28;20205;-66
2022/05/18 03:55:21;;;;;;;7.68;4.05;;;21.70;1.00;;;;;;5053205;28;20181;-67
2022/05/18 03:57:47;;;;;;;4.75;3.05;;;21.80;1.00;;;;;;5053467;28;20177;-67
2022/05/18 04:00:13;;;;;;;9.98;3.90;;;21.80;1.00;;;;;;5053248;28;20224;-66
2022/05/18 04:02:40;;;;;;;5.50;3.97;;;21.80;1.00;;;;;;5052904;28;20188;-67
2022/05/18 04:05:07;;;;;;;7.22;3.55;;;21.90;1.00;;;;;;5053310;28;20183;-67
2022/05/18 04:07:33;;;;;;;7.25;3.90;;;22.00;1.00;;;;;;5053364;28;20284;-67
2022/05/18 04:09:59;;;;;;;8.30;3.67;;;22.00;1.00;;;;;;5052945;28;20181;-67
2022/05/18 04:12:27;;;;;;;9.35;3.90;;;22.00;1.00;;;;;;5053000;28;20201;-67
2022/05/18 04:14:54;;;;;;;10.00;3.50;;;21.90;1.00;;;;;;5052550;28;20199;-67
2022/05/18 04:17:24;;;;;;;7.03;3.63;;;22.10;1.00;;;;;;5053045;28;20181;-68
2022/05/18 04:19:50;;;;;;;10.50;3.90;;;22.30;1.00;;;;;;5053215;28;20174;-66
2022/05/18 04:22:16;;;;;;;7.85;3.28;;;22.50;1.00;;;;;;5053116;28;20291;-66
2022/05/18 04:24:42;;;;;;;6.55;3.65;;;22.60;1.00;;;;;;5052933;28;20284;-67
2022/05/18 04:27:07;;;;;;;7.15;3.75;;;22.50;1.00;;;;;;5052983;28;20516;-67
2022/05/18 04:29:33;;;;;;;10.30;3.60;;;22.40;1.00;;;;;;5051512;28;20177;-67
2022/05/18 04:31:59;;;;;;;9.48;3.40;;;22.30;1.00;;;;;;5052489;28;20803;-67
2022/05/18 04:34:26;;;;;;;7.22;3.80;;;21.90;1.00;;;;;;5052594;28;20260;-67
2022/05/18 04:36:52;;;;;;;10.50;3.60;;;21.80;1.00;;;;;;5052847;28;20181;-67
2022/05/18 04:39:18;;;;;;;8.93;3.53;;;21.80;1.00;;;;;;5052879;28;20578;-67
2022/05/18 04:41:44;;;;;;;9.57;4.07;;;21.90;1.00;;;;;;5052341;28;20387;-68
2022/05/18 04:44:10;;;;;;;9.93;3.67;;;21.90;1.00;;;;;;5052624;28;20226;-68
2022/05/18 04:46:35;;;;;;;5.68;3.10;;;21.90;1.00;;;;;;5052357;28;20176;-67
2022/05/18 04:49:01;;;;;;;7.30;3.70;;;21.80;1.00;;;;;;5052490;28;20174;-68
2022/05/18 04:51:27;;;;;;;6.75;3.65;;;21.80;99.90;;;;;;5052394;28;20208;-68
2022/05/18 04:53:53;;;;;;;6.15;3.35;;;22.00;99.90;;;;;;5052061;28;20636;-66
2022/05/18 04:56:19;;;;;;;9.35;3.75;;;22.40;1.00;;;;;;5051557;28;20169;-66
2022/05/18 04:58:45;;;;;;;4.53;2.83;;;22.40;1.00;;;;;;5051038;28;20226;-67
2022/05/18 05:01:10;;;;;;;5.45;2.83;;;22.40;99.90;;;;;;5052112;28;20227;-66
2022/05/18 05:03:37;;;;;;;5.05;2.63;;;22.20;1.00;;;;;;5055642;28;20252;-67
2022/05/18 05:06:04;;;;;;;9.10;2.80;;;22.10;95.70;;;;;;5056247;28;20219;-67
2022/05/18 05:08:30;;;;;;;7.22;3.08;;;22.00;1.00;;;;;;5056049;28;20197;-67
2022/05/18 05:10:56;;;;;;;4.00;3.03;;;21.90;1.00;;;;;;5055682;28;20165;-66
2022/05/18 05:13:22;;;;;;;4.85;2.80;;;21.80;67.20;;;;;;5055326;28;20208;-67
2022/05/18 05:15:51;;;;;;;4.20;2.90;;;21.80;1.00;;;;;;5055796;28;20246;-67
2022/05/18 05:18:17;;;;;;;6.22;3.20;;;21.90;99.90;;;;;;5056070;28;20231;-68
2022/05/18 05:20:43;;;;;;;7.07;2.90;;;21.60;1.00;;;;;;5055672;28;20645;-67
2022/05/18 05:23:09;;;;;;;4.75;3.00;;;21.50;1.00;;;;;;5056053;28;20184;-67
2022/05/18 05:25:34;;;;;;;6.53;3.20;;;21.30;1.00;;;;;;5055231;28;20174;-67
2022/05/18 05:28:00;;;;;;;5.32;3.25;;;21.30;1.00;;;;;;5055258;28;20178;-67
2022/05/18 05:30:27;;;;;;;5.07;3.08;;;21.40;1.00;;;;;;5055854;28;20176;-67
2022/05/18 05:32:52;;;;;;;5.97;3.10;;;21.50;1.00;;;;;;5055852;28;20204;-68
2022/05/18 05:35:18;;;;;;;6.55;3.28;;;21.40;33.40;;;;;;5053748;28;20582;-68
2022/05/18 05:37:44;;;;;;;6.72;3.28;;;21.50;67.70;;;;;;5055177;28;20586;-68
2022/05/18 05:40:11;;;;;;;4.43;3.10;;;21.50;99.90;;;;;;5054620;28;20192;-68
2022/05/18 05:42:37;;;;;;;6.68;3.60;;;21.60;80.50;;;;;;5054505;28;20177;-67
2022/05/18 05:45:04;;;;;;;7.63;3.83;;;21.70;1.00;;;;;;5055090;28;20173;-68
2022/05/18 05:47:29;;;;;;;6.65;3.40;;;22.00;1.00;;;;;;5055223;28;20181;-68
2022/05/18 05:49:55;;;;;;;3.45;2.90;;;22.20;1.00;;;;;;5055705;28;20260;-66
2022/05/18 05:52:20;;;;;;;8.50;3.90;;;22.40;99.90;;;;;;5054727;28;20229;-66
2022/05/18 05:54:46;;;;;;;6.68;3.78;;;23.00;99.90;;;;;;5054437;28;20169;-67
2022/05/18 05:57:12;;;;;;;10.52;3.60;;;23.10;99.90;;;;;;5054234;28;20176;-67
2022/05/18 05:59:38;;;;;;;3.60;3.30;;;23.90;99.90;;;;;;5053746;28;20582;-68
2022/05/18 06:02:07;;;;;;;10.07;3.80;;;24.50;1.00;;;;;;5053922;28;20253;-68
2022/05/18 06:04:34;;;;;;;7.13;3.30;;;25.00;99.90;;;;;;5054618;28;20162;-69
2022/05/18 06:07:00;;;;;;;6.45;4.05;;;25.40;1.00;;;;;;5054130;28;20170;-68
2022/05/18 06:09:26;;;;;;;5.90;3.90;;;25.80;1.00;;;;;;5053598;28;20254;-67
2022/05/18 06:11:52;;;;;;;5.43;4.32;;;26.10;1.00;;;;;;5053703;28;20201;-69
2022/05/18 06:14:18;;;;;;;11.43;4.57;;;26.50;1.00;;;;;;5061391;28;20195;-71
2022/05/18 06:16:46;;;;;;;6.90;3.90;;;27.80;1.00;;;;;;5056101;28;20181;-71
2022/05/18 06:19:16;;;;;;;4.50;3.20;;;29.10;99.90;;;;;;5055736;28;20187;-72
2022/05/18 06:21:42;;;;;;;3.92;3.42;;;30.30;99.90;;;;;;5073262;28;20276;-72
2022/05/18 06:24:08;;;;;;;5.63;4.57;;;31.40;99.90;;;;;;5086916;28;20279;-72
2022/05/18 06:26:36;;;;;;;6.72;3.50;;;31.70;99.90;;;;;;5077634;28;20172;-71
2022/05/18 06:29:02;;;;;;;5.65;3.22;;;32.00;99.90;;;;;;5090197;28;20220;-71
2022/05/18 06:31:28;;;;;;;4.18;3.22;;;32.10;99.90;;;;;;5080088;28;20200;-72
2022/05/18 06:33:54;;;;;;;5.53;2.95;;;33.50;99.90;;;;;;5084149;28;20265;-71
2022/05/18 06:36:19;;;;;;;6.95;3.47;;;33.60;99.90;;;;;;5087619;28;20225;-72
2022/05/18 06:38:46;;;;;;;7.75;3.70;;;33.00;99.90;;;;;;5077004;28;20177;-71
2022/05/18 06:41:23;;;;;;;5.65;3.13;;;34.20;97.20;;;;;;5086781;28;20195;-70
2022/05/18 06:43:57;;;;;;;7.07;3.10;;;34.90;84.60;;;;;;5082151;28;20254;-71
2022/05/18 06:46:25;;;;;;;5.18;2.90;;;35.80;60.10;;;;;;5075148;28;20690;-70
2022/05/18 06:48:51;;;;;;;4.10;2.80;;;35.30;52.10;;;;;;5061631;28;20180;-70
2022/05/18 06:51:21;;;;;;;6.00;3.20;;;35.60;42.40;;;;;;5070193;28;20172;-70
2022/05/18 06:53:54;;;;;;;3.22;2.72;;;36.20;33.20;;;;;;5083380;28;20180;-70
2022/05/18 06:56:22;;;;;;;5.63;3.10;;;36.10;26.00;;;;;;5079840;28;20179;-71
2022/05/18 06:58:48;;;;;;;4.82;2.50;;;36.70;23.40;;;;;;5076538;28;20172;-71
2022/05/18 07:01:15;;;;;;;5.20;3.00;;;37.00;15.20;;;;;;5086340;28;20208;-70
2022/05/18 07:03:43;;;;;;;4.43;2.92;;;36.20;13.90;;;;;;5078709;28;20229;-70
2022/05/18 07:06:08;;;;;;;5.88;3.08;;;35.60;15.80;;;;;;5079374;28;20172;-70
2022/05/18 07:08:35;;;;;;;4.10;3.28;;;35.30;16.50;;;;;;5083602;28;20663;-71
2022/05/18 07:11:01;;;;;;;5.65;2.70;;;34.20;21.00;;;;;;5075520;28;20160;-69
2022/05/18 07:13:26;;;;;;;4.38;2.20;;;33.10;22.80;;;;;;5070747;28;20264;-72
2022/05/18 07:15:52;;;;;;;2.88;2.03;;;32.20;27.30;;;;;;5073846;28;20201;-69
2022/05/18 07:18:19;;;;;;;4.85;2.45;;;31.60;29.80;;;;;;5079303;28;20688;-69
2022/05/18 07:20:45;;;;;;;3.63;2.55;;;30.80;37.00;;;;;;5083322;28;20636;-70
2022/05/18 07:23:10;;;;;;;5.13;2.25;;;30.50;42.90;;;;;;5071269;28;20175;-70
2022/05/18 07:25:36;;;;;;;5.38;2.42;;;30.50;49.90;;;;;;5073280;28;20169;-70
2022/05/18 07:28:02;;;;;;;6.00;3.25;;;30.60;50.90;;;;;;5068040;28;20184;-69
2022/05/18 07:30:28;;;;;;;5.70;2.72;;;31.30;47.60;;;;;;5072826;28;20168;-69
2022/05/18 07:32:54;;;;;;;4.72;2.10;;;31.30;44.00;;;;;;5073731;28;20208;-69
2022/05/18 07:35:19;;;;;;;5.60;2.25;;;30.80;47.60;;;;;;5086699;28;20168;-70
2022/05/18 07:37:45;;;;;;;4.43;2.25;;;30.30;49.10;;;;;;5069640;28;20195;-74
2022/05/18 07:40:10;;;;;;;4.43;2.60;;;29.80;53.60;;;;;;5068492;28;20185;-67
2022/05/18 07:42:38;;;;;;;5.75;2.55;;;29.30;55.40;;;;;;5084160;28;20172;-67
2022/05/18 07:45:05;;;;;;;3.92;2.22;;;29.20;62.00;;;;;;5074968;28;20194;-68
2022/05/18 07:47:32;;;;;;;6.40;2.60;;;29.30;63.40;;;;;;5072898;28;20177;-66
2022/05/18 07:49:58;;;;;;;5.55;2.10;;;29.30;68.90;;;;;;5075064;28;20194;-67
2022/05/18 07:52:25;;;;;;;6.45;2.63;;;30.20;60.00;;;;;;5077973;28;20668;-67
2022/05/18 07:54:51;;;;;;;2.67;2.05;;;30.80;52.10;;;;;;5072831;28;20188;-67
2022/05/18 07:57:17;;;;;;;5.97;2.60;;;31.20;53.30;;;;;;5074599;28;20179;-66
2022/05/18 07:59:43;;;;;;;7.47;2.20;;;32.30;44.80;;;;;;5083403;28;20208;-66
2022/05/18 08:02:09;;;;;;;2.33;1.63;;;33.10;31.60;;;;;;5070734;28;20526;-69
2022/05/18 08:04:35;;;;;;;3.45;1.73;;;34.30;20.40;;;;;;5069065;28;20291;-67
2022/05/18 08:07:01;;;;;;;1.50;1.40;;;34.90;14.20;;;;;;5068135;28;20215;-68
2022/05/18 08:09:27;;;;;;;1.58;1.20;;;35.70;7.50;;;;;;5070953;28;20214;-67
2022/05/18 08:17:23;;;;;;;3.30;1.58;;;36.70;1.00;;;;;;5056443;28;20227;-69
2022/05/18 08:19:49;;;;;;;6.32;1.67;;;36.80;1.00;;;;;;5071754;28;20183;-67
2022/05/18 08:22:15;;;;;;;2.10;1.52;;;37.00;1.00;;;;;;5071509;28;20608;-68
2022/05/18 08:24:40;;;;;;;3.08;1.70;;;37.40;1.00;;;;;;5071723;28;20212;-68
2022/05/18 08:27:12;;;;;;;2.10;1.50;;;38.10;1.00;;;;;;5070326;28;20225;-67
2022/05/18 08:29:38;;;;;;;2.50;1.65;;;39.00;1.00;;;;;;5071357;28;20168;-67
2022/05/18 08:32:04;;;;;;;0.80;0.80;;;39.20;1.00;;;;;;5068509;28;20215;-67
2022/05/18 08:34:30;;;;;;;1.10;1.10;;;38.50;1.00;;;;;;5071990;28;20168;-68
2022/05/18 08:36:55;;;;;;;2.42;1.58;;;39.30;1.00;;;;;;5071012;28;20510;-68
2022/05/18 08:39:21;;;;;;;2.65;1.50;;;40.10;1.00;;;;;;5070838;28;20263;-68
2022/05/18 08:41:49;;;;;;;5.00;1.98;;;39.70;1.00;;;;;;5071928;28;20326;-68
2022/05/18 08:44:34;;;;;;;1.73;1.25;;;40.20;1.00;;;;;;5069323;28;20250;-68
2022/05/18 08:47:11;;;;;;;5.15;1.70;;;40.00;1.00;;;;;;5071977;28;20176;-69
2022/05/18 08:49:57;;;;;;;4.22;1.10;;;39.70;1.00;;;;;;5071097;28;20206;-69
2022/05/18 08:52:29;;;;;;;4.20;1.30;;;39.40;1.00;;;;;;5071610;28;20286;-68
2022/05/18 08:55:15;;;;;;;2.55;1.50;;;38.90;1.00;;;;;;5071654;28;20176;-69
2022/05/18 08:57:43;;;;;;;1.80;1.00;;;38.20;1.00;;;;;;5071461;28;20171;-68
2022/05/18 09:00:21;;;;;;;2.00;1.40;;;36.70;1.00;;;;;;5071974;28;20940;-68
2022/05/18 09:02:49;;;;;;;2.28;1.60;;;36.50;1.00;;;;;;5070612;28;20179;-68
2022/05/18 09:05:32;;;;;;;1.80;1.60;;;36.70;1.00;;;;;;5071539;28;20168;-68
2022/05/18 09:08:18;;;;;;;2.42;1.42;;;37.50;1.00;;;;;;5067640;28;20195;-68
2022/05/18 09:10:52;;;;;;;1.80;1.00;;;38.10;1.00;;;;;;5071067;28;20286;-68
2022/05/18 09:13:20;;;;;;;1.10;1.10;;;38.70;1.00;;;;;;5071879;28;20211;-68
2022/05/18 09:16:17;;;;;;;1.95;1.00;;;39.90;1.00;;;;;;5068065;28;20169;-68
2022/05/18 09:18:45;;;;;;;1.15;1.05;;;40.40;1.00;;;;;;5051658;28;20173;-68
2022/05/18 09:21:49;;;;;;;3.85;1.40;;;38.90;1.00;;;;;;5050995;28;20187;-69
2022/05/18 09:24:29;;;;;;;1.60;1.15;;;39.30;1.00;;;;;;5052264;28;20192;-69
2022/05/18 09:27:13;;;;;;;0.98;0.88;;;39.40;1.00;;;;;;5051537;28;20165;-69
2022/05/18 09:30:08;;;;;;;2.28;1.67;;;39.30;1.00;;;;;;5069774;28;20581;-70
2022/05/18 09:32:48;;;;;;;2.95;1.60;;;39.60;1.00;;;;;;5052060;28;20191;-68
2022/05/18 09:35:29;;;;;;;2.78;1.20;;;39.30;1.00;;;;;;5071372;28;20172;-69
2022/05/18 09:38:22;;;;;;;1.00;0.98;;;38.90;1.00;;;;;;5071384;28;20163;-69
2022/05/18 09:40:50;;;;;;;2.75;1.30;;;38.50;1.00;;;;;;5071128;28;20176;-69
2022/05/18 09:43:24;;;;;;;1.00;0.95;;;39.10;1.00;;;;;;5071457;28;20675;-69
2022/05/18 09:45:50;;;;;;;1.60;1.50;;;39.30;1.00;;;;;;5071967;28;20172;-69
2022/05/18 09:48:40;;;;;;;6.93;1.75;;;38.90;1.00;;;;;;5071691;28;20186;-69
2022/05/18 09:51:08;;;;;;;1.98;1.42;;;38.90;1.00;;;;;;5074633;28;20188;-69
2022/05/18 09:53:35;;;;;;;1.80;1.40;;;39.10;1.00;;;;;;5073839;28;20164;-68
2022/05/18 09:56:01;;;;;;;1.67;1.25;;;38.40;1.00;;;;;;5074640;28;20198;-69
2022/05/18 09:58:35;;;;;;;2.88;1.70;;;39.10;1.00;;;;;;5070071;28;20251;-68
2022/05/18 10:07:49;;;;;;;1.98;1.70;;;39.20;1.00;;;;;;5064177;28;20706;-69
2022/05/18 10:09:46;;;;;;;1.25;1.15;;;38.70;1.00;;;;;;5057219;28;20184;-68
2022/05/18 10:12:14;;;;;;;2.03;1.65;;;37.70;1.00;;;;;;5063644;28;20171;-68
2022/05/18 10:14:40;;;;;;;3.15;1.85;;;38.20;1.00;;;;;;5073965;28;20278;-69
2022/05/18 10:17:13;;;;;;;3.25;1.88;;;38.30;1.00;;;;;;5057935;28;20177;-68
2022/05/18 10:19:50;;;;;;;2.75;1.90;;;38.60;1.00;;;;;;5052749;28;20165;-68
2022/05/18 10:22:24;;;;;;;2.72;1.77;;;38.70;1.00;;;;;;5054296;28;20208;-68
2022/05/18 10:25:15;;;;;;;2.90;1.65;;;37.80;1.00;;;;;;5068549;28;20190;-69
2022/05/18 10:27:44;;;;;;;2.60;1.90;;;37.50;1.00;;;;;;5043553;28;20253;-68
2022/05/18 10:30:25;;;;;;;2.85;1.70;;;38.00;1.00;;;;;;5068863;28;20252;-68
2022/05/18 10:33:19;;;;;;;3.53;1.67;;;38.10;1.00;;;;;;5069333;28;20167;-68
2022/05/18 10:35:53;;;;;;;1.80;1.60;;;38.90;1.00;;;;;;5079362;28;20166;-68
2022/05/18 10:38:28;;;;;;;2.58;1.80;;;37.00;1.00;;;;;;5072663;28;20168;-69
2022/05/18 10:41:11;;;;;;;1.25;1.15;;;36.50;1.00;;;;;;5071388;28;20273;-69
2022/05/18 10:43:41;;;;;;;3.17;1.40;;;36.40;1.00;;;;;;5073575;28;20219;-69
2022/05/18 10:46:19;;;;;;;1.70;1.60;;;36.70;1.00;;;;;;5061438;28;20160;-69
2022/05/18 10:48:59;;;;;;;2.85;1.67;;;36.80;1.00;;;;;;5084102;28;20684;-68
2022/05/18 10:51:42;;;;;;;3.10;1.25;;;36.80;1.00;;;;;;5076952;28;20167;-69
2022/05/18 10:54:16;;;;;;;1.80;1.60;;;36.90;1.00;;;;;;5064619;28;20224;-67
2022/05/18 10:56:43;;;;;;;4.00;1.80;;;36.70;1.00;;;;;;5081749;28;20194;-69
2022/05/18 10:59:30;;;;;;;6.68;1.70;;;36.30;1.00;;;;;;5077271;28;20164;-70
2022/05/18 11:02:06;;;;;;;3.60;1.77;;;36.40;1.00;;;;;;5087640;28;20646;-68
2022/05/18 11:04:40;;;;;;;2.53;2.25;;;36.80;1.00;;;;;;5079700;28;20171;-70
2022/05/18 11:07:07;;;;;;;3.72;1.85;;;36.60;1.00;;;;;;5079285;28;20215;-68
2022/05/18 11:09:33;;;;;;;2.95;1.33;;;35.50;1.00;;;;;;5088323;28;20630;-69
2022/05/18 11:12:02;;;;;;;3.13;1.70;;;35.30;1.00;;;;;;5076141;28;20218;-69
2022/05/18 11:14:37;;;;;;;5.50;1.60;;;35.00;1.00;;;;;;5079083;28;20199;-67
2022/05/18 11:17:14;;;;;;;4.60;2.42;;;34.50;1.00;;;;;;5080295;28;20176;-69
2022/05/18 11:19:53;;;;;;;3.45;1.80;;;34.10;1.00;;;;;;5089104;28;20171;-68
2022/05/18 11:22:22;;;;;;;3.33;1.95;;;34.70;1.00;;;;;;5078081;28;20199;-68
2022/05/18 11:25:08;;;;;;;3.30;1.77;;;34.10;1.00;;;;;;5082905;28;20164;-68
2022/05/18 11:27:37;;;;;;;4.05;1.60;;;34.40;1.00;;;;;;5088986;28;20172;-68
2022/05/18 11:30:31;;;;;;;1.70;1.40;;;35.00;1.00;;;;;;5071750;28;20169;-69
2022/05/18 11:33:15;;;;;;;3.05;1.83;;;35.20;1.00;;;;;;5066302;28;20234;-68
2022/05/18 11:36:15;;;;;;;4.32;1.60;;;35.60;1.00;;;;;;5089419;28;20206;-68
2022/05/18 11:38:59;;;;;;;4.18;1.90;;;34.90;1.00;;;;;;5079981;28;20179;-68
2022/05/18 11:41:43;;;;;;;3.08;1.75;;;34.50;1.00;;;;;;5077883;28;20203;-67
2022/05/18 11:44:24;;;;;;;1.90;1.38;;;32.80;1.00;;;;;;5061139;28;20164;-67
2022/05/18 11:47:13;;;;;;;4.75;1.60;;;33.00;1.00;;;;;;5066809;28;20185;-68
2022/05/18 11:50:10;;;;;;;2.33;1.52;;;33.00;1.00;;;;;;5060104;28;20170;-66
2022/05/18 11:53:25;;;;;;;3.88;1.45;;;33.50;1.00;;;;;;5067743;28;20240;-67
2022/05/18 11:55:50;;;;;;;3.83;1.70;;;33.50;1.00;;;;;;5021028;28;20192;-67
2022/05/18 11:59:03;;;;;;;3.97;1.52;;;33.20;1.00;;;;;;5071673;28;20554;-68
2022/05/18 12:01:40;;;;;;;2.70;2.10;;;32.50;1.00;;;;;;5069832;28;20252;-68
2022/05/18 12:04:12;;;;;;;2.50;1.80;;;32.10;1.00;;;;;;5075079;28;20180;-67
2022/05/18 12:07:01;;;;;;;4.25;2.00;;;31.50;1.00;;;;;;5083646;28;20223;-68
2022/05/18 12:09:51;;;;;;;3.10;2.00;;;31.50;1.00;;;;;;5086308;28;20178;-68
2022/05/18 12:12:23;;;;;;;4.18;2.17;;;30.90;1.00;;;;;;5057931;28;20196;-67
2022/05/18 12:15:04;;;;;;;2.22;1.80;;;30.70;1.00;;;;;;5081413;28;20209;-66
2022/05/18 12:17:57;;;;;;;3.53;1.83;;;30.30;1.00;;;;;;5076606;28;20227;-68
2022/05/18 12:20:31;;;;;;;2.10;1.90;;;30.20;1.00;;;;;;5065843;28;20168;-65
2022/05/18 12:23:00;;;;;;;6.53;2.35;;;30.10;1.00;;;;;;5080207;28;20212;-66
2022/05/18 12:25:28;;;;;;;7.30;2.50;;;30.30;1.00;;;;;;5082853;28;20221;-67
2022/05/18 12:27:57;;;;;;;3.55;1.90;;;30.50;1.00;;;;;;5061907;28;20169;-67
2022/05/18 12:30:26;;;;;;;2.95;2.20;;;30.10;1.00;;;;;;5060375;28;20218;-67
2022/05/18 12:32:53;;;;;;;4.95;2.75;;;29.90;1.00;;;;;;5056956;28;20267;-66
2022/05/18 12:35:26;;;;;;;6.60;3.85;;;30.10;1.00;;;;;;5054592;28;20267;-66
2022/05/18 12:38:03;;;;;;;3.15;2.70;;;30.30;1.00;;;;;;5077620;28;20181;-67
2022/05/18 12:40:47;;;;;;;4.13;2.67;;;30.60;1.00;;;;;;5084934;28;20505;-67
2022/05/18 12:43:16;;;;;;;3.17;2.15;;;30.50;1.00;;;;;;5083955;28;20268;-68
2022/05/18 12:45:45;;;;;;;4.28;2.08;;;30.30;1.00;;;;;;5070552;28;20199;-67
2022/05/18 12:48:29;;;;;;;4.85;1.83;;;29.70;1.00;;;;;;5067702;28;20190;-67
2022/05/18 12:51:02;;;;;;;2.72;2.22;;;28.90;1.00;;;;;;5066083;28;20326;-67
2022/05/18 12:53:57;;;;;;;6.18;3.00;;;28.70;1.00;;;;;;5085972;28;20187;-67
2022/05/18 12:56:47;;;;;;;3.53;2.10;;;28.80;1.00;;;;;;5066212;28;20166;-68
2022/05/18 12:59:19;;;;;;;3.15;2.08;;;28.60;1.00;;;;;;5081211;28;20215;-68
2022/05/18 13:01:51;;;;;;;4.72;2.58;;;28.10;4.80;;;;;;5088380;28;20220;-67
2022/05/18 13:04:16;;;;;;;4.95;2.10;;;28.50;5.60;;;;;;5073474;28;20721;-67
2022/05/18 13:06:47;;;;;;;6.85;2.78;;;28.60;19.30;;;;;;5074991;28;20188;-68
2022/05/18 13:09:25;;;;;;;3.55;1.77;;;28.90;3.70;;;;;;5084474;28;20168;-67
2022/05/18 13:11:54;;;;;;;2.30;1.65;;;29.20;1.00;;;;;;5074565;28;20180;-67
2022/05/18 13:14:31;;;;;;;2.38;1.52;;;29.50;1.00;;;;;;5085146;28;20271;-68
2022/05/18 13:17:06;;;;;;;4.43;2.10;;;29.80;1.00;;;;;;5069524;28;20169;-67
2022/05/18 13:19:34;;;;;;;3.45;1.70;;;30.10;1.00;;;;;;5065922;28;20752;-68
2022/05/18 13:22:20;;;;;;;3.08;1.52;;;30.20;1.00;;;;;;5060149;28;20508;-67
2022/05/18 13:25:04;;;;;;;5.50;2.08;;;30.20;1.00;;;;;;5072510;28;20514;-67